TimeAKST,TemperatureF,Dew PointF,Humidity,Sea Level PressureIn,VisibilityMPH,Wind Direction,Wind SpeedMPH,Gust SpeedMPH,PrecipitationIn,Events,Conditions,WindDirDegrees,DateUTC
12:53 AM,39.0,33.1,79,30.26,10.0,East,12.7,-,N/A,,Overcast,90,2013-01-01 09:53:00
1:53 AM,37.0,33.1,86,30.25,10.0,ESE,12.7,-,N/A,,Overcast,110,2013-01-01 10:53:00
3:53 AM,37.0,32.0,82,30.24,10.0,East,11.5,-,N/A,,Overcast,80,2013-01-01 12:53:00
4:53 AM,37.9,32.0,79,30.21,10.0,SE,9.2,-,N/A,,Overcast,140,2013-01-01 13:53:00
5:53 AM,37.0,30.9,79,30.18,10.0,ESE,11.5,-,N/A,,Overcast,110,2013-01-01 14:53:00
6:53 AM,37.9,30.9,76,30.13,10.0,East,8.1,-,N/A,,Overcast,100,2013-01-01 15:53:00
7:53 AM,37.0,30.0,76,30.10,10.0,East,6.9,-,N/A,,Overcast,90,2013-01-01 16:53:00
8:53 AM,37.0,30.9,79,30.06,10.0,SE,13.8,-,N/A,,Overcast,130,2013-01-01 17:53:00
9:53 AM,37.9,30.0,73,30.04,10.0,East,12.7,-,N/A,,Overcast,100,2013-01-01 18:53:00
10:53 AM,37.0,30.0,76,30.00,10.0,ENE,5.8,-,N/A,,Overcast,60,2013-01-01 19:53:00
11:53 AM,37.9,28.9,70,29.96,10.0,East,12.7,-,N/A,,Overcast,80,2013-01-01 20:53:00
12:53 PM,43.0,24.1,47,29.98,10.0,East,12.7,20.7,N/A,,Overcast,90,2013-01-01 21:53:00
1:53 PM,39.9,27.0,60,29.91,10.0,East,10.4,-,N/A,,Overcast,80,2013-01-01 22:53:00
2:53 PM,41.0,26.1,55,29.88,10.0,East,12.7,-,N/A,,Overcast,80,2013-01-01 23:53:00
3:53 PM,39.0,30.0,70,29.90,7.0,SE,20.7,32.2,0.00,Rain,Light Rain,130,2013-01-02 00:53:00
4:25 PM,37.0,32.0,82,29.89,6.0,East,19.6,31.1,0.02,Rain,Light Rain,100,2013-01-02 01:25:00
4:53 PM,37.0,33.1,86,29.87,5.0,East,19.6,28.8,0.05,Rain,Light Rain,100,2013-01-02 01:53:00
5:53 PM,37.9,34.0,86,29.85,10.0,ESE,24.2,32.2,0.03,Rain,Light Rain,120,2013-01-02 02:53:00
6:53 PM,37.9,34.0,86,29.83,6.0,ESE,26.5,36.8,0.01,Rain,Light Rain,120,2013-01-02 03:53:00
7:53 PM,37.9,34.0,86,29.81,7.0,ESE,25.3,36.8,0.02,Rain,Light Rain,110,2013-01-02 04:53:00
8:35 PM,37.9,34.0,86,29.81,5.0,ESE,25.3,35.7,0.03,Rain,Light Rain,110,2013-01-02 05:35:00
8:53 PM,37.0,34.0,89,29.82,5.0,ESE,26.5,-,0.05,Rain,Rain,110,2013-01-02 05:53:00
9:53 PM,37.0,34.0,89,29.84,5.0,East,19.6,28.8,0.05,Rain,Light Rain,100,2013-01-02 06:53:00
10:53 PM,37.0,34.0,89,29.85,5.0,ESE,17.3,27.6,0.08,Rain,Light Rain,110,2013-01-02 07:53:00
11:53 PM,37.0,34.0,89,29.86,6.0,ESE,15.0,-,0.04,Rain,Light Rain,120,2013-01-02 08:53:00